Terminal Aerodrome Forecast
Issued by NWS Oklahoma City, OK

Home | Current Version | Previous Version | Text Only | Print | Product List | Glossary On
Versions: 1 2 3 4 5 6 7 8 9 10 11 12 13 14
000
FTUS44 KOUN 201720
TAFOUN
TAF
KOUN 201720Z 2018/2118 20013KT P6SM SCT009 SCT030
     FM202100 20010KT P6SM FEW030 SCT250
     FM210500 33008KT P6SM SKC=

USA.gov is the U.S. government's official web portal to all federal, state and local government web resources and services.